Time;durP1;ratioP1;P1;durP2;ratioP2;P2;SDS_P1;SDS_P2;PMS_P1;PMS_P2;Temp;Humidity;BMP_temperature;BMP_pressure;BME280_temperature;BME280_humidity;BME280_pressure;Samples;Min_cycle;Max_cycle;Signal;HPM_P1;HPM_P2
2024/03/15 00:00:47;;;;;;;17.03;3.73;;;11.90;99.90;;;;;;5010342;28;20242;-86
2024/03/15 00:03:12;;;;;;;14.70;2.90;;;11.90;99.90;;;;;;5011876;28;20514;-86
2024/03/15 00:05:38;;;;;;;14.67;3.40;;;11.90;99.90;;;;;;5011807;28;20227;-86
2024/03/15 00:08:10;;;;;;;17.03;3.50;;;11.90;99.90;;;;;;5010191;28;20418;-86
2024/03/15 00:10:36;;;;;;;19.45;3.58;;;11.90;99.90;;;;;;5012598;28;20454;-86
2024/03/15 00:13:03;;;;;;;14.50;3.27;;;11.80;99.90;;;;;;5010564;28;20202;-86
2024/03/15 00:15:29;;;;;;;16.00;3.53;;;11.70;99.90;;;;;;4994757;28;20202;-86
2024/03/15 00:17:55;;;;;;;15.02;2.85;;;11.60;99.90;;;;;;5011395;28;20186;-86
2024/03/15 00:20:22;;;;;;;14.90;3.30;;;11.60;99.90;;;;;;4994394;28;20662;-86
2024/03/15 00:22:50;;;;;;;16.42;3.90;;;11.60;99.90;;;;;;5010751;28;20174;-87
2024/03/15 00:25:18;;;;;;;16.60;3.50;;;11.50;99.90;;;;;;5011122;28;20171;-86
2024/03/15 00:27:44;;;;;;;17.42;3.70;;;11.50;99.90;;;;;;5010140;28;20175;-86
2024/03/15 00:30:10;;;;;;;17.90;4.67;;;11.50;99.90;;;;;;5011348;28;20641;-86
2024/03/15 00:32:35;;;;;;;18.13;3.47;;;11.60;99.90;;;;;;5010311;28;20191;-86
2024/03/15 00:35:01;;;;;;;16.30;4.00;;;11.50;99.90;;;;;;5011774;28;20433;-86
2024/03/15 00:37:27;;;;;;;15.40;4.10;;;11.50;99.90;;;;;;5011393;28;20159;-86
2024/03/15 00:39:53;;;;;;;16.40;3.57;;;11.50;99.90;;;;;;5007640;28;20441;-86
2024/03/15 00:42:18;;;;;;;21.77;4.10;;;11.50;99.90;;;;;;5004907;28;20187;-85
2024/03/15 00:44:44;;;;;;;17.10;3.63;;;11.50;99.90;;;;;;5005641;28;20172;-85
2024/03/15 00:47:09;;;;;;;17.27;3.33;;;11.40;99.90;;;;;;5005020;28;20174;-85
2024/03/15 00:49:35;;;;;;;19.63;4.20;;;11.40;99.90;;;;;;5004773;28;20217;-85
2024/03/15 00:52:01;;;;;;;18.83;4.00;;;11.50;99.90;;;;;;5004646;28;20213;-85
2024/03/15 00:54:27;;;;;;;16.43;4.03;;;11.40;99.90;;;;;;5005108;28;20156;-85
2024/03/15 00:56:53;;;;;;;17.92;4.82;;;11.40;99.90;;;;;;4987202;28;20175;-85
2024/03/15 00:59:20;;;;;;;16.53;3.83;;;11.40;99.90;;;;;;5003633;28;20172;-85
2024/03/15 01:01:46;;;;;;;16.45;3.92;;;11.40;99.90;;;;;;5003678;28;20477;-85
2024/03/15 01:04:14;;;;;;;17.77;3.73;;;11.40;99.90;;;;;;5003851;28;20163;-85
2024/03/15 01:06:40;;;;;;;16.42;3.88;;;11.30;99.90;;;;;;4986588;28;20642;-85
2024/03/15 01:09:06;;;;;;;17.87;3.80;;;11.30;99.90;;;;;;5002838;28;20286;-85
2024/03/15 01:11:32;;;;;;;18.23;4.43;;;11.30;99.90;;;;;;5002869;28;20462;-86
2024/03/15 01:13:59;;;;;;;14.80;3.63;;;11.30;99.90;;;;;;5004559;28;20207;-86
2024/03/15 01:16:26;;;;;;;16.65;3.83;;;11.30;99.90;;;;;;5004035;28;20214;-85
2024/03/15 01:18:53;;;;;;;16.38;4.05;;;11.30;99.90;;;;;;5003844;28;20178;-85
2024/03/15 01:21:21;;;;;;;15.95;3.80;;;11.30;99.90;;;;;;5004372;28;20183;-85
2024/03/15 01:23:48;;;;;;;18.13;4.18;;;11.30;99.90;;;;;;5004427;28;20167;-86
2024/03/15 01:26:20;;;;;;;17.67;4.60;;;11.40;99.90;;;;;;5003389;28;20171;-85
2024/03/15 01:28:46;;;;;;;16.75;3.95;;;11.50;99.90;;;;;;5004628;28;20668;-85
2024/03/15 01:31:12;;;;;;;18.85;4.78;;;11.50;99.90;;;;;;5002670;28;20325;-86
2024/03/15 01:33:38;;;;;;;15.50;3.30;;;11.50;99.90;;;;;;5002277;28;20660;-85
2024/03/15 01:36:03;;;;;;;16.57;4.07;;;11.50;99.90;;;;;;5004308;28;20163;-85
2024/03/15 01:38:31;;;;;;;21.53;3.77;;;11.60;99.90;;;;;;5004078;28;20167;-85
2024/03/15 01:40:57;;;;;;;14.85;3.65;;;11.60;99.90;;;;;;5003701;28;20242;-85
2024/03/15 01:43:23;;;;;;;16.93;3.90;;;11.60;99.90;;;;;;5004044;28;20171;-85
2024/03/15 01:45:48;;;;;;;14.43;3.47;;;11.60;99.90;;;;;;5003734;28;20238;-85
2024/03/15 01:48:14;;;;;;;15.53;3.97;;;11.50;99.90;;;;;;5003379;28;20175;-85
2024/03/15 01:50:42;;;;;;;16.70;4.73;;;11.50;99.90;;;;;;5001538;28;20191;-86
2024/03/15 01:53:08;;;;;;;16.38;4.32;;;11.50;99.90;;;;;;5003297;28;20466;-85
2024/03/15 01:55:34;;;;;;;15.88;3.33;;;11.50;99.90;;;;;;5001542;28;20279;-86
2024/03/15 01:58:00;;;;;;;18.40;4.10;;;11.50;99.90;;;;;;5004061;28;20187;-86
2024/03/15 02:00:25;;;;;;;18.55;4.45;;;11.50;99.90;;;;;;5009062;28;20195;-86
2024/03/15 02:02:51;;;;;;;14.47;3.50;;;11.40;99.90;;;;;;5010603;28;20179;-86
2024/03/15 02:05:17;;;;;;;17.03;4.30;;;11.40;99.90;;;;;;5009592;28;20244;-86
2024/03/15 02:07:46;;;;;;;17.43;3.90;;;11.40;99.90;;;;;;5009931;28;20236;-86
2024/03/15 02:10:14;;;;;;;16.58;3.97;;;11.40;99.90;;;;;;5009151;28;20191;-86
2024/03/15 02:12:40;;;;;;;20.48;6.05;;;11.40;99.90;;;;;;5008788;28;20195;-86
2024/03/15 02:15:07;;;;;;;17.55;4.70;;;11.30;99.90;;;;;;5008069;28;20178;-86
2024/03/15 02:17:33;;;;;;;18.63;4.50;;;11.30;99.90;;;;;;5009338;28;20246;-86
2024/03/15 02:19:59;;;;;;;16.50;4.20;;;11.30;99.90;;;;;;5008707;28;20167;-86
2024/03/15 02:22:25;;;;;;;17.30;4.30;;;11.40;99.90;;;;;;4991992;28;20262;-86
2024/03/15 02:24:51;;;;;;;15.73;3.63;;;11.30;99.90;;;;;;5009844;28;20174;-86
2024/03/15 02:27:17;;;;;;;19.47;3.63;;;11.40;99.90;;;;;;5008849;28;20414;-86
2024/03/15 02:29:42;;;;;;;15.90;3.70;;;11.30;99.90;;;;;;5007562;28;20261;-86
2024/03/15 02:32:09;;;;;;;16.03;3.50;;;11.30;99.90;;;;;;5008970;28;20195;-86
2024/03/15 02:34:34;;;;;;;15.80;3.63;;;11.30;99.90;;;;;;5008615;28;20174;-86
2024/03/15 02:37:03;;;;;;;17.53;3.70;;;11.30;99.90;;;;;;5009263;28;20182;-86
2024/03/15 02:39:29;;;;;;;15.57;3.60;;;11.30;99.90;;;;;;5008681;28;20168;-86
2024/03/15 02:41:56;;;;;;;16.02;3.25;;;11.30;99.90;;;;;;5007714;28;20206;-86
2024/03/15 02:44:21;;;;;;;17.25;4.05;;;11.30;99.90;;;;;;5007476;28;20171;-86
2024/03/15 02:46:48;;;;;;;16.00;3.70;;;11.30;99.90;;;;;;5008330;28;20164;-86
2024/03/15 02:49:14;;;;;;;17.42;4.10;;;11.30;99.90;;;;;;5007824;28;20154;-86
2024/03/15 02:51:41;;;;;;;15.40;3.90;;;11.40;99.90;;;;;;5008596;28;20187;-86
2024/03/15 02:54:08;;;;;;;17.55;4.07;;;11.40;99.90;;;;;;5008348;28;20545;-86
2024/03/15 02:56:34;;;;;;;18.73;4.70;;;11.40;99.90;;;;;;5007014;28;20168;-86
2024/03/15 02:59:01;;;;;;;19.70;4.47;;;11.40;99.90;;;;;;5008066;28;20226;-86
2024/03/15 03:01:26;;;;;;;16.85;4.75;;;11.40;99.90;;;;;;5007940;28;20190;-86
2024/03/15 03:03:52;;;;;;;18.67;3.93;;;11.40;99.90;;;;;;5007339;28;20175;-86
2024/03/15 03:06:18;;;;;;;16.93;4.40;;;11.40;99.90;;;;;;5006697;28;20175;-86
2024/03/15 03:08:43;;;;;;;16.60;4.27;;;11.40;99.90;;;;;;5007201;28;20407;-86
2024/03/15 03:11:11;;;;;;;16.07;3.63;;;11.40;99.90;;;;;;5007740;28;20187;-86
2024/03/15 03:13:37;;;;;;;17.02;4.15;;;11.40;99.90;;;;;;5006975;28;20286;-86
2024/03/15 03:16:05;;;;;;;16.38;3.92;;;11.30;99.90;;;;;;5005513;28;20167;-86
2024/03/15 03:18:30;;;;;;;16.08;3.17;;;11.40;99.90;;;;;;5004562;28;20163;-86
2024/03/15 03:20:56;;;;;;;17.77;3.97;;;11.40;99.90;;;;;;5001589;28;20185;-85
2024/03/15 03:23:22;;;;;;;15.80;3.50;;;11.40;99.90;;;;;;4984596;28;20656;-86
2024/03/15 03:25:49;;;;;;;15.48;3.58;;;11.40;99.90;;;;;;5000805;28;20247;-85
2024/03/15 03:28:15;;;;;;;15.10;3.50;;;11.30;99.90;;;;;;5001676;28;20163;-85
2024/03/15 03:30:41;;;;;;;18.77;3.90;;;11.40;99.90;;;;;;5000325;28;20191;-86
2024/03/15 03:33:07;;;;;;;15.82;3.97;;;11.30;99.90;;;;;;5001373;28;20983;-85
2024/03/15 03:35:33;;;;;;;16.00;3.40;;;11.30;99.90;;;;;;4986333;28;20221;-85
2024/03/15 03:37:59;;;;;;;15.20;3.60;;;11.30;99.90;;;;;;5004841;28;20533;-85
2024/03/15 03:40:24;;;;;;;18.93;4.20;;;11.30;99.90;;;;;;5005605;28;20174;-85
2024/03/15 03:42:51;;;;;;;15.63;4.10;;;11.30;99.90;;;;;;4988484;28;20179;-85
2024/03/15 03:45:17;;;;;;;18.35;3.85;;;11.30;99.90;;;;;;5006354;28;20183;-85
2024/03/15 03:47:48;;;;;;;15.82;2.83;;;11.30;99.90;;;;;;5005913;28;20510;-85
2024/03/15 03:50:14;;;;;;;14.68;2.72;;;11.30;99.90;;;;;;5004400;28;20172;-85
2024/03/15 03:52:42;;;;;;;18.00;2.70;;;11.30;99.90;;;;;;5005638;28;20210;-86
2024/03/15 03:55:07;;;;;;;15.27;3.10;;;11.40;99.90;;;;;;5004262;28;20568;-85
2024/03/15 03:57:37;;;;;;;15.30;2.60;;;11.50;99.90;;;;;;5005692;28;20166;-85
2024/03/15 04:00:14;;;;;;;14.60;2.03;;;11.50;99.90;;;;;;5006405;28;20406;-86
2024/03/15 04:02:50;;;;;;;15.30;2.67;;;11.50;99.90;;;;;;5007234;28;20644;-86
2024/03/15 04:05:18;;;;;;;15.55;2.25;;;11.60;99.90;;;;;;4989454;28;20644;-86
2024/03/15 04:07:46;;;;;;;15.85;3.20;;;11.60;99.90;;;;;;5004897;28;20187;-85
2024/03/15 04:10:13;;;;;;;14.23;2.10;;;11.70;99.90;;;;;;5004477;28;20171;-85
2024/03/15 04:12:40;;;;;;;13.65;1.90;;;11.80;99.90;;;;;;4987896;28;20198;-85
2024/03/15 04:15:07;;;;;;;15.18;2.65;;;11.80;99.90;;;;;;5005125;28;20164;-85
2024/03/15 04:17:35;;;;;;;14.70;2.40;;;11.80;99.90;;;;;;5005717;28;20186;-86
2024/03/15 04:20:00;;;;;;;15.90;2.85;;;11.90;99.90;;;;;;5006120;28;20160;-85
2024/03/15 04:22:26;;;;;;;14.50;2.07;;;11.90;99.90;;;;;;5005204;28;20667;-85
2024/03/15 04:24:52;;;;;;;14.97;2.30;;;12.00;99.90;;;;;;5006411;28;20195;-85
2024/03/15 04:27:18;;;;;;;17.45;2.53;;;12.00;99.90;;;;;;5005618;28;20159;-85
2024/03/15 04:29:44;;;;;;;16.80;2.70;;;12.00;99.90;;;;;;5005325;28;20163;-86
2024/03/15 04:32:10;;;;;;;13.80;2.50;;;12.10;99.90;;;;;;5005993;28;20457;-85
2024/03/15 04:34:40;;;;;;;13.80;2.23;;;12.10;99.90;;;;;;5004843;28;20155;-85
2024/03/15 04:37:09;;;;;;;14.85;2.20;;;12.10;99.90;;;;;;4989395;28;20398;-86
2024/03/15 04:39:38;;;;;;;15.25;2.00;;;12.10;99.90;;;;;;5011159;28;20159;-87
2024/03/15 04:42:04;;;;;;;14.18;2.10;;;12.20;99.90;;;;;;5010113;28;20197;-86
2024/03/15 04:44:36;;;;;;;14.85;1.90;;;12.20;99.90;;;;;;5010601;28;20166;-86
2024/03/15 04:47:03;;;;;;;13.52;1.85;;;12.20;99.90;;;;;;5010919;28;20242;-87
2024/03/15 04:49:28;;;;;;;18.00;2.55;;;12.30;99.90;;;;;;5009205;28;20174;-86
2024/03/15 04:51:57;;;;;;;14.80;2.30;;;12.30;99.90;;;;;;5008542;28;20203;-86
2024/03/15 04:54:23;;;;;;;13.98;2.20;;;12.30;99.90;;;;;;5009537;28;20155;-86
2024/03/15 04:56:49;;;;;;;16.05;2.10;;;12.30;99.90;;;;;;5009256;28;20167;-86
2024/03/15 04:59:15;;;;;;;15.10;2.80;;;12.30;99.90;;;;;;5009501;28;20641;-86
2024/03/15 05:01:42;;;;;;;14.30;2.20;;;12.30;99.90;;;;;;5009045;28;20187;-86
2024/03/15 05:04:08;;;;;;;15.63;2.97;;;12.30;99.90;;;;;;5008572;28;20177;-86
2024/03/15 05:06:34;;;;;;;16.15;2.85;;;12.30;99.90;;;;;;5009405;28;20170;-86
2024/03/15 05:09:00;;;;;;;14.43;2.30;;;12.40;99.60;;;;;;5008464;28;20175;-86
2024/03/15 05:11:26;;;;;;;16.40;2.60;;;12.40;97.80;;;;;;5007791;28;20202;-86
2024/03/15 05:13:51;;;;;;;14.70;2.33;;;12.40;98.70;;;;;;5008777;28;20196;-86
2024/03/15 05:16:17;;;;;;;13.47;2.47;;;12.40;98.30;;;;;;5008255;28;20164;-86
2024/03/15 05:18:43;;;;;;;17.13;2.23;;;12.40;99.60;;;;;;5008273;28;20167;-86
2024/03/15 05:21:12;;;;;;;15.00;2.77;;;12.40;99.60;;;;;;5008918;28;20179;-86
2024/03/15 05:23:37;;;;;;;18.77;2.85;;;12.40;99.90;;;;;;5008478;28;20167;-86
2024/03/15 05:26:05;;;;;;;14.40;2.17;;;12.40;99.90;;;;;;5007757;28;20174;-86
2024/03/15 05:28:35;;;;;;;15.65;3.00;;;12.50;99.90;;;;;;5007476;28;20171;-86
2024/03/15 05:31:04;;;;;;;16.02;2.50;;;12.50;99.90;;;;;;5007061;28;20191;-86
2024/03/15 05:33:34;;;;;;;13.13;2.03;;;12.50;99.50;;;;;;5006658;28;20199;-86
2024/03/15 05:36:01;;;;;;;14.60;2.40;;;12.50;99.40;;;;;;5005581;28;20641;-86
2024/03/15 05:38:33;;;;;;;14.18;2.20;;;12.50;99.60;;;;;;5006343;28;20171;-86
2024/03/15 05:41:01;;;;;;;13.30;2.05;;;12.60;99.80;;;;;;5007863;28;20176;-86
2024/03/15 05:43:27;;;;;;;13.68;2.10;;;12.60;99.60;;;;;;5005703;28;20175;-86
2024/03/15 05:45:52;;;;;;;18.70;2.73;;;12.60;99.10;;;;;;4989888;28;20178;-86
2024/03/15 05:48:18;;;;;;;16.33;2.40;;;12.60;98.90;;;;;;5007956;28;20246;-86
2024/03/15 05:50:44;;;;;;;13.93;2.07;;;12.60;96.20;;;;;;5007700;28;20548;-86
2024/03/15 05:53:10;;;;;;;16.20;2.73;;;12.60;97.70;;;;;;5006046;28;20233;-87
2024/03/15 05:55:35;;;;;;;15.73;2.40;;;12.60;99.00;;;;;;5007931;28;20410;-86
2024/03/15 05:58:01;;;;;;;14.77;2.30;;;12.60;97.60;;;;;;5004351;28;20167;-86
2024/03/15 06:00:27;;;;;;;13.77;2.25;;;12.60;98.10;;;;;;5002668;28;20195;-86
2024/03/15 06:02:53;;;;;;;14.25;2.60;;;12.70;98.80;;;;;;4985730;28;20210;-86
2024/03/15 06:05:19;;;;;;;17.47;4.60;;;12.60;98.50;;;;;;5001278;28;20175;-86
2024/03/15 06:07:45;;;;;;;12.90;1.97;;;12.70;99.60;;;;;;5000255;28;20178;-85
2024/03/15 06:10:11;;;;;;;18.38;2.60;;;12.70;99.90;;;;;;5000435;28;20254;-86
2024/03/15 06:12:37;;;;;;;16.30;2.10;;;12.70;99.20;;;;;;5002313;28;20214;-85
2024/03/15 06:15:03;;;;;;;15.40;2.10;;;12.70;99.60;;;;;;5000949;28;20517;-86
2024/03/15 06:17:32;;;;;;;14.50;2.70;;;12.70;99.00;;;;;;5000390;28;20167;-86
2024/03/15 06:19:58;;;;;;;14.23;2.40;;;12.70;99.40;;;;;;5001109;28;20234;-86
2024/03/15 06:22:25;;;;;;;15.00;1.85;;;12.80;99.20;;;;;;4984674;28;20214;-86
2024/03/15 06:24:52;;;;;;;16.23;2.60;;;12.80;98.20;;;;;;4984965;28;20171;-85
2024/03/15 06:27:20;;;;;;;15.75;2.80;;;12.80;98.30;;;;;;5000287;28;20522;-86
2024/03/15 06:29:52;;;;;;;13.65;2.58;;;12.80;98.60;;;;;;5002759;28;20167;-85
2024/03/15 06:32:20;;;;;;;16.80;2.55;;;12.80;99.70;;;;;;4999924;28;20235;-86
2024/03/15 06:34:46;;;;;;;18.00;2.63;;;12.80;99.50;;;;;;4982378;28;20588;-85
2024/03/15 06:37:19;;;;;;;14.70;2.33;;;12.80;99.90;;;;;;5000530;28;20167;-86
2024/03/15 06:42:24;;;;;;;16.98;2.33;;;12.80;99.90;;;;;;5001043;28;20691;-85
2024/03/15 06:45:01;;;;;;;14.25;2.75;;;12.80;99.90;;;;;;4999454;28;20262;-86
2024/03/15 06:47:33;;;;;;;15.32;2.28;;;12.90;99.90;;;;;;4999147;28;20198;-85
2024/03/15 06:52:54;;;;;;;14.40;2.40;;;13.00;99.90;;;;;;4964504;28;20212;-86
2024/03/15 06:55:20;;;;;;;13.70;2.43;;;13.00;99.40;;;;;;4999553;28;20182;-85
2024/03/15 06:57:48;;;;;;;14.60;2.87;;;13.00;99.80;;;;;;4999197;28;20186;-85
2024/03/15 07:00:14;;;;;;;15.93;3.15;;;13.10;98.50;;;;;;4999297;28;20407;-84
2024/03/15 07:02:42;;;;;;;16.03;2.63;;;13.10;98.60;;;;;;4996493;28;20171;-84
2024/03/15 07:05:10;;;;;;;18.20;4.47;;;13.10;97.60;;;;;;4997652;28;20406;-84
2024/03/15 07:07:37;;;;;;;17.95;3.70;;;13.10;96.20;;;;;;4998255;28;20154;-85
2024/03/15 07:10:04;;;;;;;18.75;4.07;;;13.10;97.70;;;;;;4980649;28;20258;-84
2024/03/15 07:12:30;;;;;;;18.42;4.28;;;13.10;97.60;;;;;;4997064;28;20636;-85
2024/03/15 07:14:56;;;;;;;16.60;4.17;;;13.20;98.10;;;;;;4981536;28;20169;-85
2024/03/15 07:17:24;;;;;;;25.03;4.13;;;13.20;98.20;;;;;;5001939;28;20403;-85
2024/03/15 07:19:50;;;;;;;17.38;3.60;;;13.20;98.60;;;;;;5004593;28;20522;-86
2024/03/15 07:22:16;;;;;;;21.93;3.30;;;13.20;98.90;;;;;;5003145;28;20179;-86
2024/03/15 07:24:48;;;;;;;17.77;4.07;;;13.30;98.20;;;;;;5004941;28;20398;-85
2024/03/15 07:27:14;;;;;;;14.80;3.00;;;13.40;97.80;;;;;;5004853;28;20441;-86
2024/03/15 07:29:41;;;;;;;16.92;2.97;;;13.50;97.50;;;;;;5004589;28;20410;-86
2024/03/15 07:32:07;;;;;;;14.38;2.90;;;13.50;94.30;;;;;;4986775;28;20237;-86
2024/03/15 07:34:32;;;;;;;14.97;2.73;;;13.50;92.40;;;;;;5004336;28;20163;-86
2024/03/15 07:36:58;;;;;;;15.50;2.90;;;13.50;93.20;;;;;;5003181;28;20226;-86
2024/03/15 07:39:29;;;;;;;16.43;3.17;;;13.60;93.70;;;;;;5004019;28;20588;-86
2024/03/15 07:42:01;;;;;;;16.05;3.00;;;13.50;93.70;;;;;;4988176;28;20197;-86
2024/03/15 07:44:28;;;;;;;14.98;2.90;;;13.50;96.70;;;;;;5004610;28;20217;-86
2024/03/15 07:46:56;;;;;;;16.40;3.33;;;13.60;98.40;;;;;;5003010;28;20187;-86
2024/03/15 07:49:25;;;;;;;14.20;2.40;;;13.60;98.90;;;;;;5003290;28;20431;-85
2024/03/15 07:51:51;;;;;;;14.13;2.30;;;13.60;99.90;;;;;;5000878;28;20963;-86
2024/03/15 07:54:25;;;;;;;16.77;2.73;;;13.60;99.90;;;;;;5002074;28;20458;-86
2024/03/15 07:56:53;;;;;;;14.90;2.80;;;13.70;99.90;;;;;;4983893;28;20469;-85
2024/03/15 07:59:20;;;;;;;15.83;2.47;;;13.80;99.90;;;;;;5002278;28;20403;-86
2024/03/15 08:01:46;;;;;;;18.47;2.30;;;13.90;99.90;;;;;;5000812;28;20453;-85
2024/03/15 08:04:14;;;;;;;19.63;3.10;;;13.90;97.70;;;;;;5001327;28;20429;-85
2024/03/15 08:06:40;;;;;;;16.53;2.90;;;14.00;98.50;;;;;;5001196;28;20418;-86
2024/03/15 08:09:06;;;;;;;16.20;3.07;;;14.10;98.00;;;;;;5002971;28;20417;-86
2024/03/15 08:11:35;;;;;;;14.23;2.70;;;14.20;95.90;;;;;;5001662;28;20203;-85
2024/03/15 08:14:05;;;;;;;13.10;2.20;;;14.20;95.10;;;;;;5001175;28;20477;-86
2024/03/15 08:16:34;;;;;;;17.20;2.77;;;14.20;92.50;;;;;;5002439;28;20406;-86
2024/03/15 08:19:10;;;;;;;16.90;2.53;;;14.30;94.60;;;;;;4984770;28;20414;-86
2024/03/15 08:21:39;;;;;;;14.40;2.13;;;14.30;90.60;;;;;;4986860;28;20437;-86
2024/03/15 08:24:05;;;;;;;13.90;2.00;;;14.20;90.90;;;;;;5006330;28;20420;-86
2024/03/15 08:26:34;;;;;;;13.70;2.20;;;14.30;90.80;;;;;;5005905;28;20436;-86
2024/03/15 08:29:03;;;;;;;13.50;2.10;;;14.30;90.80;;;;;;5005826;28;20467;-86
2024/03/15 08:31:31;;;;;;;15.73;2.43;;;14.30;91.40;;;;;;5005325;28;20429;-86
2024/03/15 08:34:01;;;;;;;12.60;1.77;;;14.30;88.40;;;;;;5006373;28;20454;-86
2024/03/15 08:36:32;;;;;;;17.60;3.00;;;14.30;87.90;;;;;;5007340;28;20418;-85
2024/03/15 08:38:58;;;;;;;15.90;2.80;;;14.30;88.10;;;;;;5005714;28;20391;-85
2024/03/15 08:41:23;;;;;;;17.17;3.00;;;14.20;87.80;;;;;;4999900;28;20450;-85
2024/03/15 08:43:52;;;;;;;16.43;2.63;;;14.20;91.60;;;;;;5000495;28;20179;-84
2024/03/15 08:46:17;;;;;;;18.57;3.00;;;14.20;91.50;;;;;;5000248;28;20221;-85
2024/03/15 08:48:43;;;;;;;15.83;2.40;;;14.30;92.00;;;;;;5001310;28;20867;-85
2024/03/15 08:51:11;;;;;;;19.30;2.83;;;14.40;92.90;;;;;;5001116;28;20668;-86
2024/03/15 08:53:37;;;;;;;15.03;2.67;;;14.60;90.50;;;;;;5001471;28;20198;-85
2024/03/15 08:56:03;;;;;;;15.93;3.37;;;14.70;88.20;;;;;;5000519;28;20399;-85
2024/03/15 08:58:29;;;;;;;16.30;2.70;;;14.80;90.90;;;;;;5001004;28;20167;-86
2024/03/15 09:00:58;;;;;;;14.10;2.90;;;14.90;87.60;;;;;;4999138;28;20497;-85
2024/03/15 09:03:25;;;;;;;15.33;2.43;;;15.00;82.10;;;;;;4983253;28;20636;-85
2024/03/15 09:05:51;;;;;;;14.00;2.60;;;15.10;73.00;;;;;;5001011;28;20406;-85
2024/03/15 09:08:17;;;;;;;16.63;2.50;;;15.30;76.10;;;;;;5001739;28;20441;-85
2024/03/15 09:10:42;;;;;;;16.17;2.20;;;15.30;65.10;;;;;;5000421;28;20198;-85
2024/03/15 09:13:09;;;;;;;15.50;2.17;;;15.20;56.60;;;;;;5000939;28;20190;-86
2024/03/15 09:15:35;;;;;;;13.60;1.90;;;15.30;65.50;;;;;;5001807;28;20532;-85
2024/03/15 09:18:01;;;;;;;13.63;1.83;;;15.40;58.50;;;;;;4999880;28;20493;-84
2024/03/15 09:20:33;;;;;;;15.23;1.93;;;15.40;61.10;;;;;;5000270;28;20247;-86
2024/03/15 09:23:01;;;;;;;17.00;2.00;;;15.40;62.50;;;;;;4999745;28;20223;-85
2024/03/15 09:25:27;;;;;;;16.90;2.20;;;15.50;46.10;;;;;;5001365;28;20946;-86
2024/03/15 09:27:53;;;;;;;21.13;2.33;;;15.30;53.30;;;;;;4983263;28;20434;-85
2024/03/15 09:30:26;;;;;;;13.50;2.27;;;15.40;57.70;;;;;;4999708;28;20414;-86
2024/03/15 09:32:53;;;;;;;15.60;2.10;;;15.50;55.30;;;;;;4998374;28;21211;-85
2024/03/15 09:35:19;;;;;;;14.23;1.90;;;15.50;62.80;;;;;;4982575;28;20923;-85
2024/03/15 09:37:51;;;;;;;13.23;1.70;;;15.60;61.50;;;;;;4999523;28;20894;-85
2024/03/15 09:40:23;;;;;;;14.33;2.33;;;15.60;51.20;;;;;;5000586;28;20387;-85
2024/03/15 09:42:52;;;;;;;14.90;2.13;;;15.60;58.70;;;;;;4982606;28;20422;-84
2024/03/15 09:45:21;;;;;;;13.70;1.90;;;15.80;48.10;;;;;;5000511;28;20792;-85
2024/03/15 09:47:51;;;;;;;12.60;1.30;;;15.80;32.70;;;;;;5002218;28;20800;-85
2024/03/15 09:50:24;;;;;;;14.20;2.03;;;15.90;23.70;;;;;;5000996;28;20379;-86
2024/03/15 09:52:53;;;;;;;15.47;2.17;;;15.90;22.30;;;;;;5001335;28;20465;-84
2024/03/15 09:55:21;;;;;;;14.30;2.10;;;15.90;26.40;;;;;;5000153;28;20398;-84
2024/03/15 09:57:49;;;;;;;13.00;1.57;;;15.90;24.40;;;;;;5001403;28;20465;-86
2024/03/15 10:00:23;;;;;;;12.67;1.50;;;15.80;18.90;;;;;;5006003;28;20474;-86
2024/03/15 10:02:52;;;;;;;15.17;2.20;;;15.80;30.00;;;;;;5005944;28;20375;-86
2024/03/15 10:05:20;;;;;;;15.50;1.40;;;15.90;27.40;;;;;;5005055;28;20407;-86
2024/03/15 10:07:47;;;;;;;13.23;1.50;;;15.90;29.50;;;;;;5005765;28;20406;-86
2024/03/15 10:10:14;;;;;;;12.80;1.27;;;16.10;33.00;;;;;;5002125;28;20998;-86
2024/03/15 10:12:49;;;;;;;14.30;1.80;;;16.30;35.90;;;;;;5003658;28;20442;-86
2024/03/15 10:15:17;;;;;;;12.67;1.10;;;16.50;19.70;;;;;;5003219;28;20405;-86
2024/03/15 10:17:45;;;;;;;13.83;1.53;;;16.40;20.40;;;;;;5002600;28;20410;-85
2024/03/15 10:20:24;;;;;;;13.60;1.60;;;16.30;1.00;;;;;;5006877;28;20406;-86
2024/03/15 10:22:55;;;;;;;13.00;1.53;;;16.30;16.80;;;;;;5006897;28;20400;-86
2024/03/15 10:25:22;;;;;;;13.57;1.30;;;16.40;10.90;;;;;;5004473;28;20403;-86
2024/03/15 10:27:53;;;;;;;13.40;1.37;;;16.60;9.70;;;;;;5004247;28;20405;-86
2024/03/15 10:30:22;;;;;;;13.30;1.30;;;16.80;8.80;;;;;;5003716;28;20497;-86
2024/03/15 10:32:53;;;;;;;12.80;1.40;;;16.90;1.00;;;;;;4986910;28;20458;-86
2024/03/15 10:35:20;;;;;;;13.00;1.33;;;17.00;1.00;;;;;;5003348;28;20406;-86
2024/03/15 10:37:47;;;;;;;12.70;1.00;;;16.80;1.00;;;;;;5003987;28;20405;-86
2024/03/15 10:40:20;;;;;;;13.10;1.40;;;16.90;1.00;;;;;;5004142;28;20414;-86
2024/03/15 10:42:48;;;;;;;12.50;0.90;;;16.90;1.00;;;;;;5003888;28;20387;-86
2024/03/15 10:45:15;;;;;;;12.47;1.00;;;16.90;1.00;;;;;;5002491;28;20441;-86
2024/03/15 10:47:41;;;;;;;14.73;1.00;;;16.80;1.00;;;;;;5004443;28;20407;-86
2024/03/15 10:50:12;;;;;;;12.87;1.07;;;16.70;1.00;;;;;;5004097;28;20446;-86
2024/03/15 10:52:42;;;;;;;13.47;1.40;;;16.90;1.00;;;;;;5003420;28;20466;-86
2024/03/15 10:55:18;;;;;;;12.80;1.10;;;16.90;1.00;;;;;;5003705;28;20876;-86
2024/03/15 10:57:45;;;;;;;12.53;1.20;;;16.70;1.00;;;;;;5003793;28;20402;-86
2024/03/15 11:00:17;;;;;;;12.33;1.10;;;16.60;1.00;;;;;;5003879;28;20414;-86
2024/03/15 11:02:47;;;;;;;13.63;1.10;;;16.60;1.00;;;;;;5004277;28;20457;-86
2024/03/15 11:05:24;;;;;;;14.43;1.13;;;16.60;1.00;;;;;;5004145;28;20410;-86
2024/03/15 11:08:05;;;;;;;12.90;1.10;;;16.50;1.00;;;;;;5004075;28;20386;-86
2024/03/15 11:10:36;;;;;;;13.10;1.20;;;16.50;1.00;;;;;;5002718;28;20430;-86
2024/03/15 11:13:05;;;;;;;15.53;1.20;;;16.40;1.00;;;;;;5003629;28;20442;-86
2024/03/15 11:15:36;;;;;;;12.23;1.27;;;16.30;1.00;;;;;;5003820;28;20407;-86
2024/03/15 11:18:06;;;;;;;12.70;1.00;;;16.40;1.00;;;;;;5001693;28;20414;-86
2024/03/15 11:20:48;;;;;;;12.27;0.90;;;16.30;1.00;;;;;;5001404;28;20426;-85
2024/03/15 11:23:19;;;;;;;12.87;1.20;;;16.20;1.00;;;;;;4996747;28;20485;-85
2024/03/15 11:25:59;;;;;;;16.00;1.13;;;16.20;1.00;;;;;;4995960;28;20414;-85
2024/03/15 11:28:28;;;;;;;12.03;0.90;;;16.20;1.00;;;;;;4998589;28;20880;-85
2024/03/15 11:30:54;;;;;;;12.37;1.10;;;16.00;1.80;;;;;;4997328;28;20438;-84
2024/03/15 11:33:35;;;;;;;14.00;1.17;;;15.90;12.50;;;;;;4999624;28;20445;-85
2024/03/15 11:36:01;;;;;;;12.90;1.10;;;15.90;36.90;;;;;;4981061;28;20836;-85
2024/03/15 11:38:26;;;;;;;12.90;1.00;;;15.90;30.00;;;;;;4999048;28;20437;-85
2024/03/15 11:40:55;;;;;;;12.47;0.97;;;16.10;33.20;;;;;;4999583;28;20244;-85
2024/03/15 11:43:21;;;;;;;12.80;1.10;;;16.30;35.10;;;;;;4996556;28;20193;-85
2024/03/15 11:45:47;;;;;;;12.60;1.00;;;16.40;28.30;;;;;;4997978;28;20965;-85
2024/03/15 11:48:21;;;;;;;14.10;1.00;;;16.50;18.80;;;;;;4997031;28;20645;-85
2024/03/15 11:50:51;;;;;;;12.40;1.03;;;16.50;17.50;;;;;;4995958;28;20485;-85
2024/03/15 11:53:18;;;;;;;12.23;1.00;;;16.50;24.50;;;;;;4996870;28;20477;-85
2024/03/15 11:55:44;;;;;;;13.27;1.40;;;16.60;24.30;;;;;;4997315;28;20441;-85
2024/03/15 11:58:18;;;;;;;12.10;0.83;;;16.70;9.70;;;;;;5000457;28;20421;-84
2024/03/15 12:00:54;;;;;;;12.63;1.10;;;16.90;11.30;;;;;;5001963;28;20536;-84
2024/03/15 12:03:22;;;;;;;13.00;1.10;;;16.90;1.00;;;;;;5001740;28;20421;-85
2024/03/15 12:05:48;;;;;;;12.37;1.13;;;16.90;1.00;;;;;;5000217;28;20932;-85
2024/03/15 12:08:22;;;;;;;13.10;1.30;;;16.80;1.00;;;;;;5001615;28;20417;-85
2024/03/15 12:10:52;;;;;;;12.97;0.93;;;16.70;1.00;;;;;;5001633;28;20865;-85
2024/03/15 12:13:23;;;;;;;13.37;1.40;;;16.60;1.00;;;;;;5000156;28;20458;-85
2024/03/15 12:15:50;;;;;;;12.10;1.00;;;16.50;1.00;;;;;;5001045;28;20442;-85
2024/03/15 12:18:17;;;;;;;12.60;1.10;;;16.50;1.00;;;;;;5000689;28;20410;-85
2024/03/15 12:20:43;;;;;;;13.70;1.03;;;16.60;1.00;;;;;;5002852;28;20915;-85
2024/03/15 12:23:15;;;;;;;11.93;0.90;;;16.80;1.00;;;;;;5002760;28;20406;-86
2024/03/15 12:25:42;;;;;;;13.67;1.23;;;16.90;1.00;;;;;;5001095;28;20414;-84
2024/03/15 12:28:15;;;;;;;17.30;2.90;;;17.30;1.00;;;;;;5003141;28;20414;-85
2024/03/15 12:30:56;;;;;;;12.27;0.97;;;17.80;1.00;;;;;;4984655;28;20446;-85
2024/03/15 12:33:28;;;;;;;13.83;1.00;;;18.40;1.00;;;;;;5002580;28;20445;-86
2024/03/15 12:35:55;;;;;;;12.90;1.10;;;18.80;1.00;;;;;;4999714;28;20460;-85
2024/03/15 12:38:21;;;;;;;12.60;1.00;;;18.90;1.00;;;;;;5000262;28;20912;-85
2024/03/15 12:40:47;;;;;;;12.47;0.93;;;18.60;1.00;;;;;;5000071;28;20422;-86
2024/03/15 12:43:13;;;;;;;14.80;2.30;;;18.20;1.00;;;;;;5000970;28;21010;-85
2024/03/15 12:45:40;;;;;;;13.10;1.27;;;18.10;1.00;;;;;;5001119;28;20445;-85